createdAt,value
2018-02-23T00:00:53.973Z,-3.50
2018-02-23T00:03:20.869Z,-3.50
2018-02-23T00:05:47.437Z,-3.40
2018-02-23T00:08:14.002Z,-3.50
2018-02-23T00:10:40.530Z,-3.50
2018-02-23T00:13:07.134Z,-3.50
2018-02-23T00:15:33.701Z,-3.40
2018-02-23T00:18:00.229Z,-3.50
2018-02-23T00:20:26.789Z,-3.50
2018-02-23T00:22:53.345Z,-3.50
2018-02-23T00:25:19.870Z,-3.40
2018-02-23T00:27:46.438Z,-3.40
2018-02-23T00:30:12.998Z,-3.50
2018-02-23T00:32:39.533Z,-3.60
2018-02-23T00:35:06.109Z,-3.60
2018-02-23T00:37:32.670Z,-3.60
2018-02-23T00:39:59.206Z,-3.60
2018-02-23T00:42:25.797Z,-3.60
2018-02-23T00:44:52.370Z,-3.60
2018-02-23T00:47:18.950Z,-3.50
2018-02-23T00:49:45.516Z,-3.50
2018-02-23T00:52:12.118Z,-3.50
2018-02-23T00:54:38.649Z,-3.50
2018-02-23T00:57:05.212Z,-3.50
2018-02-23T00:59:31.770Z,-3.60
2018-02-23T01:01:58.302Z,-3.60
2018-02-23T01:04:24.856Z,-3.60
2018-02-23T01:06:51.417Z,-3.60
2018-02-23T01:09:17.950Z,-3.70
2018-02-23T01:11:44.506Z,-3.60
2018-02-23T01:14:11.072Z,-3.60
2018-02-23T01:16:37.601Z,-3.60
2018-02-23T01:19:04.193Z,-3.70
2018-02-23T01:21:31.158Z,-3.60
2018-02-23T01:23:57.690Z,-3.60
2018-02-23T01:26:24.625Z,-3.60
2018-02-23T01:28:51.189Z,-3.60
2018-02-23T01:31:18.085Z,-3.60
2018-02-23T01:33:44.642Z,-3.60
2018-02-23T01:36:11.213Z,-3.60
2018-02-23T01:38:37.741Z,-3.60
2018-02-23T01:41:04.328Z,-3.60
2018-02-23T01:43:30.890Z,-3.60
2018-02-23T01:45:57.785Z,-3.60
2018-02-23T01:48:24.688Z,-3.60
2018-02-23T01:50:57.894Z,-3.60
2018-02-23T01:53:24.474Z,-3.60
2018-02-23T01:55:51.041Z,-3.60
2018-02-23T01:58:17.617Z,-3.60
2018-02-23T02:00:44.181Z,-3.60
2018-02-23T02:03:10.754Z,-3.60
2018-02-23T02:05:37.274Z,-3.60
2018-02-23T02:08:03.837Z,-3.60
2018-02-23T02:10:37.782Z,-3.60
2018-02-23T02:13:11.280Z,-3.60
2018-02-23T02:15:37.838Z,-3.60
2018-02-23T02:18:04.361Z,-3.60
2018-02-23T02:20:31.338Z,-3.60
2018-02-23T02:22:57.905Z,-3.60
2018-02-23T02:25:24.429Z,-3.60
2018-02-23T02:27:50.985Z,-3.60
2018-02-23T02:30:17.544Z,-3.70
2018-02-23T02:32:44.081Z,-3.80
2018-02-23T02:35:10.645Z,-3.80
2018-02-23T02:37:37.207Z,-3.80
2018-02-23T02:40:03.751Z,-3.70
2018-02-23T02:42:30.327Z,-3.70
2018-02-23T02:44:56.941Z,-3.70
2018-02-23T02:47:23.495Z,-3.80
2018-02-23T02:49:50.057Z,-3.80
2018-02-23T02:52:16.618Z,-3.80
2018-02-23T02:54:43.154Z,-3.80
2018-02-23T02:57:09.714Z,-3.80
2018-02-23T02:59:36.265Z,-3.80
2018-02-23T03:02:02.838Z,-3.80
2018-02-23T03:04:29.406Z,-3.80
2018-02-23T03:06:55.970Z,-3.90
2018-02-23T03:09:22.989Z,-3.90
2018-02-23T03:11:49.594Z,-3.80
2018-02-23T03:14:16.156Z,-3.80
2018-02-23T03:16:42.677Z,-3.80
2018-02-23T03:19:09.226Z,-3.80
2018-02-23T03:21:35.789Z,-3.80
2018-02-23T03:24:02.330Z,-3.80
2018-02-23T03:26:28.889Z,-3.80
2018-02-23T03:28:55.440Z,-3.80
2018-02-23T03:31:21.974Z,-3.80
2018-02-23T03:33:48.537Z,-3.80
2018-02-23T03:36:15.464Z,-3.80
2018-02-23T03:38:41.997Z,-3.90
2018-02-23T03:41:08.573Z,-3.80
2018-02-23T03:43:35.137Z,-3.80
2018-02-23T03:46:02.036Z,-3.80
2018-02-23T03:48:28.682Z,-3.80
2018-02-23T03:50:55.246Z,-3.80
2018-02-23T03:53:21.776Z,-3.80
2018-02-23T03:55:48.338Z,-3.80
2018-02-23T03:58:14.905Z,-3.90
2018-02-23T04:00:41.433Z,-3.90
2018-02-23T04:03:07.993Z,-3.80
2018-02-23T04:05:34.551Z,-3.80
2018-02-23T04:08:01.074Z,-3.80
2018-02-23T04:10:27.629Z,-3.90
2018-02-23T04:12:54.181Z,-3.90
2018-02-23T04:15:20.705Z,-3.90
2018-02-23T04:17:47.302Z,-3.80
2018-02-23T04:20:13.941Z,-3.80
2018-02-23T04:22:40.471Z,-3.90
2018-02-23T04:25:07.041Z,-3.90
2018-02-23T04:27:33.610Z,-3.90
2018-02-23T04:30:00.509Z,-3.90
2018-02-23T04:32:27.069Z,-3.90
2018-02-23T04:34:53.630Z,-3.90
2018-02-23T04:37:20.153Z,-4.00
2018-02-23T04:39:46.769Z,-3.90
2018-02-23T04:42:13.353Z,-4.00
2018-02-23T04:44:39.881Z,-4.00
2018-02-23T04:47:06.436Z,-4.00
2018-02-23T04:49:33.034Z,-4.00
2018-02-23T04:51:59.929Z,-4.00
2018-02-23T04:54:26.485Z,-4.00
2018-02-23T04:56:53.061Z,-4.00
2018-02-23T04:59:19.610Z,-4.00
2018-02-23T05:01:46.169Z,-4.00
2018-02-23T05:04:12.724Z,-4.00
2018-02-23T05:06:39.621Z,-4.00
2018-02-23T05:09:06.181Z,-4.00
2018-02-23T05:11:32.733Z,-4.00
2018-02-23T05:13:59.258Z,-4.00
2018-02-23T05:16:25.868Z,-4.00
2018-02-23T05:18:52.430Z,-4.00
2018-02-23T05:21:19.339Z,-4.00
2018-02-23T05:23:45.915Z,-4.00
2018-02-23T05:26:12.510Z,-4.00
2018-02-23T05:28:39.089Z,-4.00
2018-02-23T05:31:05.699Z,-4.00
2018-02-23T05:33:32.261Z,-4.00
2018-02-23T05:35:58.802Z,-4.00
2018-02-23T05:38:25.385Z,-4.00
2018-02-23T05:40:51.945Z,-4.00
2018-02-23T05:43:18.473Z,-4.00
2018-02-23T05:45:45.033Z,-4.00
2018-02-23T05:48:11.602Z,-3.90
2018-02-23T05:50:38.675Z,-4.00
2018-02-23T05:53:05.245Z,-4.00
2018-02-23T05:55:31.920Z,-4.10
2018-02-23T05:57:58.457Z,-4.10
2018-02-23T06:00:25.058Z,-4.00
2018-02-23T06:02:51.990Z,-4.00
2018-02-23T06:05:18.515Z,-4.00
2018-02-23T06:07:45.073Z,-4.00
2018-02-23T06:10:11.634Z,-4.00
2018-02-23T06:12:38.170Z,-4.00
2018-02-23T06:15:04.741Z,-4.00
2018-02-23T06:17:37.651Z,-4.00
2018-02-23T06:20:08.547Z,-4.10
2018-02-23T06:22:35.133Z,-4.10
2018-02-23T06:25:01.695Z,-4.10
2018-02-23T06:27:28.314Z,-4.10
2018-02-23T06:29:54.890Z,-4.00
2018-02-23T06:32:21.800Z,-4.00
2018-02-23T06:34:48.362Z,-4.00
2018-02-23T06:37:14.926Z,-4.00
2018-02-23T06:39:41.829Z,-4.10
2018-02-23T06:42:08.385Z,-4.10
2018-02-23T06:44:34.946Z,-4.10
2018-02-23T06:47:07.404Z,-4.10
2018-02-23T06:49:33.961Z,-4.10
2018-02-23T06:52:00.518Z,-4.00
2018-02-23T06:54:27.082Z,-4.00
2018-02-23T06:56:53.645Z,-4.00
2018-02-23T06:59:20.273Z,-4.00
2018-02-23T07:01:46.882Z,-4.00
2018-02-23T07:04:13.443Z,-4.00
2018-02-23T07:06:39.993Z,-4.00
2018-02-23T07:09:06.549Z,-4.00
2018-02-23T07:11:33.126Z,-4.00
2018-02-23T07:13:59.657Z,-4.00
2018-02-23T07:16:26.248Z,-4.00
2018-02-23T07:18:53.181Z,-4.00
2018-02-23T07:21:19.706Z,-4.00
2018-02-23T07:23:46.270Z,-4.00
2018-02-23T07:26:12.834Z,-4.00
2018-02-23T07:28:39.738Z,-4.10
2018-02-23T07:31:06.300Z,-4.10
2018-02-23T07:33:32.866Z,-4.10
2018-02-23T07:35:59.401Z,-4.10
2018-02-23T07:38:25.974Z,-4.10
2018-02-23T07:40:59.465Z,-4.10
2018-02-23T07:43:26.022Z,-4.00
2018-02-23T07:45:52.582Z,-4.00
2018-02-23T07:48:19.478Z,-3.90
2018-02-23T07:50:46.129Z,-3.90
2018-02-23T07:53:12.734Z,-3.90
2018-02-23T07:55:39.640Z,-4.00
2018-02-23T07:58:06.225Z,-4.00
2018-02-23T08:00:32.854Z,-4.00
2018-02-23T08:02:59.438Z,-4.00
2018-02-23T08:05:26.374Z,-3.90
2018-02-23T08:07:53.042Z,-3.80
2018-02-23T08:10:19.550Z,-3.80
2018-02-23T08:12:46.113Z,-3.80
2018-02-23T08:15:12.730Z,-3.80
2018-02-23T08:17:39.257Z,-3.80
2018-02-23T08:20:05.858Z,-3.80
2018-02-23T08:22:32.425Z,-3.80
2018-02-23T08:24:59.330Z,-3.70
2018-02-23T08:27:25.891Z,-3.70
2018-02-23T08:29:52.449Z,-3.70
2018-02-23T08:32:18.987Z,-3.70
2018-02-23T08:34:45.550Z,-3.70
2018-02-23T08:37:12.117Z,-3.60
2018-02-23T08:39:39.032Z,-3.60
2018-02-23T08:42:05.586Z,-3.60
2018-02-23T08:44:32.141Z,-3.60
2018-02-23T08:46:58.665Z,-3.60
2018-02-23T08:49:25.238Z,-3.60
2018-02-23T08:51:51.832Z,-3.50
2018-02-23T08:54:18.363Z,-3.60
2018-02-23T08:56:45.289Z,-3.50
2018-02-23T08:59:11.850Z,-3.40
2018-02-23T09:01:39.228Z,-3.50
2018-02-23T09:04:05.826Z,-3.60
2018-02-23T09:06:32.431Z,-3.50
2018-02-23T09:08:58.985Z,-3.50
2018-02-23T09:11:25.937Z,-3.40
2018-02-23T09:13:52.895Z,-3.40
2018-02-23T09:16:19.434Z,-3.40
2018-02-23T09:18:46.403Z,-3.50
2018-02-23T09:21:12.973Z,-3.50
2018-02-23T09:23:39.514Z,-3.50
2018-02-23T09:26:06.069Z,-3.50
2018-02-23T09:28:32.624Z,-3.40
2018-02-23T09:30:59.224Z,-3.30
2018-02-23T09:33:38.028Z,-3.40
2018-02-23T09:36:04.585Z,-3.30
2018-02-23T09:38:31.119Z,-3.30
2018-02-23T09:40:57.677Z,-3.20
2018-02-23T09:43:24.238Z,-3.10
2018-02-23T09:45:50.769Z,-3.10
2018-02-23T09:48:17.333Z,-3.20
2018-02-23T09:50:43.926Z,-3.20
2018-02-23T09:53:10.450Z,-3.20
2018-02-23T09:55:37.381Z,-3.20
2018-02-23T09:58:03.954Z,-3.20
2018-02-23T10:00:30.853Z,-3.10
2018-02-23T10:02:57.418Z,-3.10
2018-02-23T10:05:23.985Z,-3.10
2018-02-23T10:07:50.519Z,-3.10
2018-02-23T10:10:17.088Z,-3.10
2018-02-23T10:12:44.022Z,-3.30
2018-02-23T10:15:10.549Z,-3.30
2018-02-23T10:17:37.101Z,-3.20
2018-02-23T10:20:03.685Z,-3.20
2018-02-23T10:22:30.581Z,-3.30
2018-02-23T10:24:57.189Z,-3.30
2018-02-23T10:27:24.157Z,-3.30
2018-02-23T10:29:51.053Z,-3.30
2018-02-23T10:32:17.611Z,-3.30
2018-02-23T10:34:44.230Z,-3.10
2018-02-23T10:37:10.758Z,-2.90
2018-02-23T10:39:37.738Z,-2.90
2018-02-23T10:42:04.373Z,-2.90
2018-02-23T10:44:30.954Z,-2.90
2018-02-23T10:46:57.513Z,-3.00
2018-02-23T10:49:24.086Z,-3.00
2018-02-23T10:51:50.715Z,-3.10
2018-02-23T10:54:17.333Z,-3.10
2018-02-23T10:56:43.900Z,-3.10
2018-02-23T10:59:10.529Z,-3.00
2018-02-23T11:01:37.134Z,-3.00
2018-02-23T11:04:04.066Z,-3.00
2018-02-23T11:06:30.597Z,-3.00
2018-02-23T11:08:57.153Z,-3.10
2018-02-23T11:11:23.717Z,-3.00
2018-02-23T11:13:50.329Z,-3.00
2018-02-23T11:16:16.892Z,-3.00
2018-02-23T11:18:43.453Z,-2.90
2018-02-23T11:21:09.983Z,-2.90
2018-02-23T11:23:36.542Z,-2.80
2018-02-23T11:26:03.105Z,-2.80
2018-02-23T11:28:29.630Z,-2.70
2018-02-23T11:30:56.610Z,-2.80
2018-02-23T11:33:23.176Z,-2.80
2018-02-23T11:35:50.093Z,-2.60
2018-02-23T11:38:16.689Z,-2.60
2018-02-23T11:40:43.254Z,-2.50
2018-02-23T11:43:09.786Z,-2.60
2018-02-23T11:45:36.350Z,-2.60
2018-02-23T11:48:02.923Z,-2.50
2018-02-23T11:50:29.483Z,-2.50
2018-02-23T11:52:56.077Z,-2.60
2018-02-23T11:55:22.638Z,-2.50
2018-02-23T11:57:49.218Z,-2.50
2018-02-23T12:00:15.782Z,-2.50
2018-02-23T12:02:42.346Z,-2.60
2018-02-23T12:05:09.237Z,-2.50
2018-02-23T12:07:35.801Z,-2.50
2018-02-23T12:10:02.376Z,-2.40
2018-02-23T12:12:28.929Z,-2.40
2018-02-23T12:14:55.494Z,-2.50
2018-02-23T12:17:22.432Z,-2.60
2018-02-23T12:19:48.966Z,-2.60
2018-02-23T12:22:15.650Z,-2.60
2018-02-23T12:24:42.600Z,-2.60
2018-02-23T12:27:09.503Z,-2.60
2018-02-23T12:29:36.086Z,-2.60
2018-02-23T12:32:02.661Z,-2.60
2018-02-23T12:34:29.226Z,-2.60
2018-02-23T12:36:55.794Z,-2.60
2018-02-23T12:39:22.362Z,-2.60
2018-02-23T12:41:48.890Z,-2.50
2018-02-23T12:44:15.454Z,-2.50
2018-02-23T12:46:42.027Z,-2.50
2018-02-23T12:49:08.581Z,-2.50
2018-02-23T12:51:35.618Z,-2.50
2018-02-23T12:54:02.193Z,-2.50
2018-02-23T12:56:29.093Z,-2.40
2018-02-23T12:58:55.657Z,-2.40
2018-02-23T13:01:22.236Z,-2.50
2018-02-23T13:03:49.130Z,-2.30
2018-02-23T13:06:15.693Z,-2.30
2018-02-23T13:08:42.286Z,-2.30
2018-02-23T13:11:09.307Z,-2.60
2018-02-23T13:13:35.868Z,-2.50
2018-02-23T13:16:02.497Z,-2.50
2018-02-23T13:18:29.045Z,-2.40
2018-02-23T13:20:55.611Z,-2.40
2018-02-23T13:23:22.173Z,-2.40
2018-02-23T13:25:48.709Z,-2.50
2018-02-23T13:28:21.357Z,-2.60
2018-02-23T13:30:47.917Z,-2.60
2018-02-23T13:33:14.578Z,-2.50
2018-02-23T13:35:41.195Z,-2.40
2018-02-23T13:38:07.766Z,-2.40
2018-02-23T13:40:34.301Z,-2.30
2018-02-23T13:43:00.878Z,-2.20
2018-02-23T13:45:27.497Z,-2.00
2018-02-23T13:47:54.074Z,-2.10
2018-02-23T13:50:20.651Z,-2.10
2018-02-23T13:52:47.681Z,-2.20
2018-02-23T13:55:14.213Z,-2.10
2018-02-23T13:57:40.777Z,-2.10
2018-02-23T14:00:07.350Z,-2.00
2018-02-23T14:02:34.290Z,-1.90
2018-02-23T14:05:00.870Z,-1.90
2018-02-23T14:07:32.242Z,-1.80
2018-02-23T14:09:58.828Z,-1.90
2018-02-23T14:12:25.448Z,-1.90
2018-02-23T14:14:52.065Z,-1.90
2018-02-23T14:17:19.021Z,-1.80
2018-02-23T14:19:45.972Z,-1.80
2018-02-23T14:22:12.909Z,-1.80
2018-02-23T14:24:39.449Z,-1.80
2018-02-23T14:27:06.019Z,-1.80
2018-02-23T14:29:32.581Z,-1.90
2018-02-23T14:31:59.492Z,-1.90
2018-02-23T14:34:26.066Z,-1.90
2018-02-23T14:36:52.670Z,-1.90
2018-02-23T14:39:19.198Z,-1.90
2018-02-23T14:41:45.765Z,-1.90
2018-02-23T14:44:19.353Z,-1.90
2018-02-23T14:46:45.919Z,-1.80
2018-02-23T14:49:17.538Z,-1.80
2018-02-23T14:51:44.454Z,-1.90
2018-02-23T14:54:11.057Z,-1.90
2018-02-23T14:56:38.001Z,-1.90
2018-02-23T14:59:04.901Z,-1.90
2018-02-23T15:01:31.478Z,-1.80
2018-02-23T15:03:58.048Z,-1.80
2018-02-23T15:06:24.583Z,-1.80
2018-02-23T15:08:51.166Z,-1.90
2018-02-23T15:11:17.743Z,-1.90
2018-02-23T15:13:44.273Z,-1.90
2018-02-23T15:16:10.836Z,-1.90
2018-02-23T15:18:37.402Z,-1.90
2018-02-23T15:21:03.937Z,-1.90
2018-02-23T15:23:30.517Z,-1.90
2018-02-23T15:25:57.088Z,-2.00
2018-02-23T15:28:24.027Z,-2.00
2018-02-23T15:31:02.793Z,-2.00
2018-02-23T15:33:29.357Z,-1.90
2018-02-23T15:35:55.889Z,-1.90
2018-02-23T15:38:22.446Z,-1.90
2018-02-23T15:40:49.014Z,-1.90
2018-02-23T15:43:15.547Z,-1.90
2018-02-23T15:45:42.182Z,-2.00
2018-02-23T15:51:26.646Z,-2.00
2018-02-23T15:53:53.299Z,-2.00
2018-02-23T15:56:20.257Z,-2.00
2018-02-23T15:58:47.253Z,-2.00
2018-02-23T16:01:13.910Z,-2.00
2018-02-23T16:03:40.497Z,-2.00
2018-02-23T16:06:07.131Z,-2.00
2018-02-23T16:08:33.737Z,-2.10
2018-02-23T16:11:00.270Z,-2.10
2018-02-23T16:13:27.249Z,-2.00
2018-02-23T16:15:53.815Z,-2.00
2018-02-23T16:18:20.414Z,-2.00
2018-02-23T16:20:47.358Z,-2.00
2018-02-23T16:23:13.930Z,-2.00
2018-02-23T16:25:40.831Z,-2.00
2018-02-23T16:28:07.426Z,-2.00
2018-02-23T16:30:34.418Z,-2.00
2018-02-23T16:33:00.997Z,-2.00
2018-02-23T16:35:27.615Z,-2.10
2018-02-23T16:37:54.241Z,-2.00
2018-02-23T16:40:21.189Z,-2.00
2018-02-23T16:42:48.126Z,-2.00
2018-02-23T16:45:14.686Z,-2.00
2018-02-23T16:47:41.589Z,-2.00
2018-02-23T16:50:08.192Z,-2.00
2018-02-23T16:52:35.133Z,-2.00
2018-02-23T16:55:01.707Z,-2.00
2018-02-23T16:57:28.282Z,-2.00
2018-02-23T16:59:54.845Z,-2.00
2018-02-23T17:02:21.382Z,-2.00
2018-02-23T17:04:47.953Z,-2.00
2018-02-23T17:07:14.518Z,-2.00
2018-02-23T17:09:41.087Z,-2.00
2018-02-23T17:12:08.018Z,-2.00
2018-02-23T17:14:34.590Z,-2.00
2018-02-23T17:17:01.500Z,-2.00
2018-02-23T17:19:28.065Z,-2.10
2018-02-23T17:21:54.630Z,-2.00
2018-02-23T17:24:21.161Z,-2.10
2018-02-23T17:26:47.734Z,-2.10
2018-02-23T17:29:14.661Z,-2.10
2018-02-23T17:31:41.294Z,-2.10
2018-02-23T17:34:07.884Z,-2.10
2018-02-23T17:36:34.829Z,-2.10
2018-02-23T17:39:01.721Z,-2.10
2018-02-23T17:41:28.288Z,-2.10
2018-02-23T17:43:54.861Z,-2.10
2018-02-23T17:46:21.389Z,-2.10
2018-02-23T17:48:47.965Z,-2.10
2018-02-23T17:51:14.913Z,-2.10
2018-02-23T17:53:41.445Z,-2.10
2018-02-23T17:56:08.051Z,-2.10
2018-02-23T17:58:34.630Z,-2.10
2018-02-23T18:01:01.189Z,-2.10
2018-02-23T18:03:27.761Z,-2.10
2018-02-23T18:05:54.326Z,-2.10
2018-02-23T18:08:21.230Z,-2.10
2018-02-23T18:10:47.798Z,-2.10
2018-02-23T18:13:14.370Z,-2.10
2018-02-23T18:15:41.274Z,-2.10
2018-02-23T18:18:07.918Z,-2.10
2018-02-23T18:20:34.474Z,-2.10
2018-02-23T18:23:01.020Z,-2.10
2018-02-23T18:25:27.610Z,-2.10
2018-02-23T18:27:54.173Z,-2.10
2018-02-23T18:30:21.077Z,-2.10
2018-02-23T18:32:47.643Z,-2.10
2018-02-23T18:35:14.280Z,-2.10
2018-02-23T18:37:40.810Z,-2.00
2018-02-23T18:40:07.382Z,-2.10
2018-02-23T18:42:33.950Z,-2.10
2018-02-23T18:45:00.485Z,-2.10
2018-02-23T18:47:27.059Z,-2.10
2018-02-23T18:49:54.013Z,-2.00
2018-02-23T18:52:20.921Z,-2.00
2018-02-23T18:54:54.251Z,-2.10
2018-02-23T18:57:14.145Z,-2.00
2018-02-23T18:59:40.686Z,-2.10
2018-02-23T19:02:07.261Z,-2.10
2018-02-23T19:04:34.271Z,-2.10
2018-02-23T19:07:00.889Z,-2.10
2018-02-23T19:09:27.510Z,-2.10
2018-02-23T19:11:54.530Z,-2.10
2018-02-23T19:14:21.113Z,-2.10
2018-02-23T19:16:49.078Z,-2.00
2018-02-23T19:19:15.674Z,-2.00
2018-02-23T19:21:42.450Z,-2.00
2018-02-23T19:24:10.158Z,-2.00
2018-02-23T19:26:37.039Z,-2.10
2018-02-23T19:29:04.309Z,-2.00
2018-02-23T19:31:31.901Z,-2.00
2018-02-23T19:33:59.457Z,-2.00
2018-02-23T19:36:26.232Z,-2.10
2018-02-23T19:38:53.725Z,-2.10
2018-02-23T19:41:20.756Z,-2.10
2018-02-23T19:43:47.333Z,-2.10
2018-02-23T19:46:13.898Z,-2.10
2018-02-23T19:48:40.861Z,-2.10
2018-02-23T19:51:07.774Z,-2.10
2018-02-23T19:53:34.350Z,-2.10
2018-02-23T19:56:00.945Z,-2.10
2018-02-23T19:58:27.553Z,-2.10
2018-02-23T20:00:54.517Z,-2.10
2018-02-23T20:03:21.459Z,-2.10
2018-02-23T20:05:47.998Z,-2.10
2018-02-23T20:08:14.569Z,-2.10
2018-02-23T20:10:41.572Z,-2.10
2018-02-23T20:13:09.905Z,-2.10
2018-02-23T20:15:40.876Z,-2.20
2018-02-23T20:18:08.712Z,-2.20
2018-02-23T20:20:36.401Z,-2.20
2018-02-23T20:23:03.555Z,-2.20
2018-02-23T20:25:31.162Z,-2.20
2018-02-23T20:27:58.079Z,-2.20
2018-02-23T20:30:24.671Z,-2.20
2018-02-23T20:32:51.693Z,-2.20
2018-02-23T20:35:18.233Z,-2.20
2018-02-23T20:37:44.829Z,-2.20
2018-02-23T20:40:12.182Z,-2.20
2018-02-23T20:42:39.097Z,-2.20
2018-02-23T20:45:05.684Z,-2.20
2018-02-23T20:47:33.282Z,-2.30
2018-02-23T20:50:00.162Z,-2.30
2018-02-23T20:52:26.729Z,-2.30
2018-02-23T20:54:53.382Z,-2.30
2018-02-23T20:57:19.971Z,-2.30
2018-02-23T20:59:47.501Z,-2.30
2018-02-23T21:02:14.132Z,-2.30
2018-02-23T21:04:40.681Z,-2.30
2018-02-23T21:07:07.289Z,-2.30
2018-02-23T21:09:33.901Z,-2.40
2018-02-23T21:12:00.441Z,-2.30
2018-02-23T21:14:27.018Z,-2.40
2018-02-23T21:16:53.977Z,-2.40
2018-02-23T21:19:20.894Z,-2.40
2018-02-23T21:21:47.719Z,-2.40
2018-02-23T21:24:14.263Z,-2.40
2018-02-23T21:26:40.842Z,-2.40
2018-02-23T21:29:07.458Z,-2.40
2018-02-23T21:31:34.070Z,-2.40
2018-02-23T21:34:00.973Z,-2.40
2018-02-23T21:36:27.621Z,-2.40
2018-02-23T21:38:54.239Z,-2.40
2018-02-23T21:41:21.641Z,-2.40
2018-02-23T21:43:48.234Z,-2.40
2018-02-23T21:46:17.110Z,-2.50
2018-02-23T21:48:43.646Z,-2.50
2018-02-23T21:51:13.298Z,-2.50
2018-02-23T21:53:40.386Z,-2.50
2018-02-23T21:56:07.749Z,-2.50
2018-02-23T21:58:34.737Z,-2.50
2018-02-23T22:01:01.317Z,-2.50
2018-02-23T22:03:27.915Z,-2.50
2018-02-23T22:05:55.509Z,-2.50
2018-02-23T22:08:29.046Z,-2.50
2018-02-23T22:10:56.064Z,-2.50
2018-02-23T22:13:22.621Z,-2.50
2018-02-23T22:15:49.149Z,-2.50
2018-02-23T22:18:15.697Z,-2.50
2018-02-23T22:20:42.257Z,-2.50
2018-02-23T22:23:08.814Z,-2.50
2018-02-23T22:25:35.378Z,-2.50
2018-02-23T22:28:01.933Z,-2.50
2018-02-23T22:30:28.472Z,-2.50
2018-02-23T22:32:55.038Z,-2.50
2018-02-23T22:35:21.925Z,-2.50
2018-02-23T22:37:48.473Z,-2.50
2018-02-23T22:40:15.097Z,-2.50
2018-02-23T22:42:41.653Z,-2.50
2018-02-23T22:45:08.616Z,-2.50
2018-02-23T22:47:35.550Z,-2.50
2018-02-23T22:50:02.150Z,-2.50
2018-02-23T22:52:28.681Z,-2.50
2018-02-23T22:54:55.256Z,-2.50
2018-02-23T22:57:21.853Z,-2.50
2018-02-23T22:59:48.753Z,-2.50
2018-02-23T23:02:15.326Z,-2.50
2018-02-23T23:04:41.892Z,-2.60
2018-02-23T23:07:13.517Z,-2.60
2018-02-23T23:09:40.081Z,-2.60
2018-02-23T23:12:06.646Z,-2.60
2018-02-23T23:14:33.185Z,-2.60
2018-02-23T23:16:59.754Z,-2.60
2018-02-23T23:19:26.306Z,-2.60
2018-02-23T23:21:53.197Z,-2.70
2018-02-23T23:24:19.766Z,-2.70
2018-02-23T23:26:46.498Z,-2.70
2018-02-23T23:29:13.454Z,-2.70
2018-02-23T23:31:40.027Z,-2.70
2018-02-23T23:34:06.594Z,-2.70
2018-02-23T23:36:33.129Z,-2.70
2018-02-23T23:38:59.690Z,-2.70
2018-02-23T23:41:26.246Z,-2.70
2018-02-23T23:43:52.785Z,-2.70
2018-02-23T23:46:19.445Z,-2.70
2018-02-23T23:48:46.021Z,-2.70
2018-02-23T23:51:12.553Z,-2.70
2018-02-23T23:53:39.521Z,-2.70
2018-02-23T23:56:06.082Z,-2.70
2018-02-23T23:58:32.646Z,-2.80
